createdAt,value
2022-08-26T09:34:41.675Z,32
2022-08-26T09:37:13.086Z,35
2022-08-26T09:39:45.628Z,34
2022-08-26T09:42:18.207Z,36
2022-08-26T09:44:51.242Z,32
2022-08-26T09:47:28.811Z,40
2022-08-26T09:50:02.516Z,36
2022-08-26T09:52:43.429Z,41
2022-08-26T09:55:16.953Z,38
2022-08-26T09:57:48.954Z,39
2022-08-26T10:00:22.911Z,44
2022-08-26T10:02:58.615Z,36
2022-08-26T10:05:30.275Z,31
2022-08-26T10:08:03.026Z,36
2022-08-26T10:10:35.707Z,36
2022-08-26T10:13:15.063Z,40
2022-08-26T10:15:51.187Z,33
2022-08-26T10:18:23.183Z,33
2022-08-26T10:20:56.789Z,28
2022-08-26T10:23:32.277Z,31
2022-08-26T10:26:04.928Z,32
2022-08-26T10:28:40.606Z,24
2022-08-26T10:31:16.262Z,36
2022-08-26T10:34:00.889Z,28
2022-08-26T10:37:05.458Z,28
2022-08-26T10:39:49.285Z,28
2022-08-26T10:42:30.128Z,28
2022-08-26T10:45:02.689Z,32
2022-08-26T10:47:35.139Z,27
2022-08-26T10:50:09.177Z,30
2022-08-26T10:52:45.475Z,28
2022-08-26T10:55:18.342Z,24
2022-08-26T10:57:50.577Z,25
2022-08-26T11:00:27.761Z,20
2022-08-26T11:03:03.039Z,28
2022-08-26T11:05:35.360Z,28
2022-08-26T11:08:10.392Z,28
2022-08-26T11:10:43.667Z,28
2022-08-26T11:13:16.749Z,21
2022-08-26T11:15:50.803Z,22
2022-08-26T11:18:25.431Z,28
2022-08-26T11:20:58.782Z,26
2022-08-26T11:23:31.129Z,26
2022-08-26T11:26:03.761Z,24
2022-08-26T11:28:44.387Z,32
2022-08-26T11:31:17.514Z,21
2022-08-26T11:33:51.438Z,27
2022-08-26T11:36:25.436Z,32
2022-08-26T11:38:58.429Z,29
2022-08-26T11:41:30.044Z,44
2022-08-26T11:44:03.125Z,28
2022-08-26T11:46:36.714Z,33
2022-08-26T11:49:10.065Z,26
2022-08-26T11:51:48.489Z,28
2022-08-26T11:54:35.938Z,20
2022-08-26T11:57:12.173Z,24
2022-08-26T11:59:42.949Z,23
2022-08-26T12:02:15.891Z,32
2022-08-26T12:04:49.934Z,24
2022-08-26T12:07:24.632Z,24
2022-08-26T12:09:57.604Z,24
2022-08-26T12:12:36.088Z,21
2022-08-26T12:15:07.514Z,29
2022-08-26T12:17:41.092Z,24
2022-08-26T12:20:13.609Z,19
2022-08-26T12:22:48.496Z,20
2022-08-26T12:25:20.992Z,27
2022-08-26T12:27:54.470Z,19
2022-08-26T12:30:27.078Z,24
2022-08-26T12:33:23.280Z,24
2022-08-26T12:35:57.186Z,20
2022-08-26T12:38:28.977Z,24
2022-08-26T12:41:01.788Z,20
2022-08-26T12:43:34.406Z,20
2022-08-26T12:46:09.910Z,20
2022-08-26T12:48:43.607Z,22
2022-08-26T12:51:16.691Z,23
2022-08-26T12:53:49.674Z,20
2022-08-26T12:56:22.320Z,35
2022-08-26T12:58:55.083Z,24
2022-08-26T13:01:28.633Z,21
2022-08-26T13:04:01.517Z,24
2022-08-26T13:06:34.032Z,19
2022-08-26T13:09:06.831Z,30
2022-08-26T13:11:39.415Z,29
2022-08-26T13:14:22.255Z,26
2022-08-26T13:16:55.854Z,24
2022-08-26T13:19:28.797Z,28
2022-08-26T13:22:01.545Z,24
2022-08-26T13:24:33.952Z,28
2022-08-26T13:27:07.043Z,28
2022-08-26T13:29:41.150Z,24
2022-08-26T13:32:13.729Z,24
2022-08-26T13:34:51.518Z,28
2022-08-26T13:37:35.590Z,28
2022-08-26T13:40:06.608Z,22
2022-08-26T13:42:50.298Z,20
2022-08-26T13:45:20.932Z,21
2022-08-26T13:47:53.301Z,20
2022-08-26T13:50:25.768Z,20
2022-08-26T13:52:59.046Z,24
2022-08-26T13:55:31.766Z,20
2022-08-26T13:58:04.759Z,27
2022-08-26T14:00:37.402Z,20
2022-08-26T14:03:13.747Z,24
2022-08-26T14:05:45.602Z,24
2022-08-26T14:08:18.144Z,21
2022-08-26T14:10:51.572Z,23
2022-08-26T14:13:23.811Z,20
2022-08-26T14:15:56.622Z,24
2022-08-26T14:18:29.129Z,22
2022-08-26T14:21:02.650Z,20
2022-08-26T14:23:35.297Z,24
2022-08-26T14:26:08.771Z,20
2022-08-26T14:29:00.391Z,24
2022-08-26T14:31:33.582Z,20
2022-08-26T14:34:06.748Z,23
2022-08-26T14:36:39.660Z,24
2022-08-26T14:39:12.891Z,18
2022-08-26T14:41:54.222Z,20
2022-08-26T14:44:26.106Z,20
2022-08-26T14:46:59.449Z,22
2022-08-26T14:49:32.052Z,20
2022-08-26T14:52:04.758Z,21
2022-08-26T14:54:38.068Z,23
2022-08-26T14:57:11.535Z,20
2022-08-26T14:59:50.450Z,20
2022-08-26T15:02:34.129Z,24
2022-08-26T15:05:06.377Z,24
2022-08-26T15:07:39.461Z,24
2022-08-26T15:10:12.377Z,19
2022-08-26T15:12:45.075Z,24
2022-08-26T15:15:16.217Z,25
2022-08-26T15:17:49.622Z,20
2022-08-26T15:20:21.805Z,20
2022-08-26T15:22:55.082Z,27
2022-08-26T15:25:36.867Z,20
2022-08-26T15:28:10.112Z,24
2022-08-26T15:30:43.102Z,20
2022-08-26T15:33:15.878Z,24
2022-08-26T15:35:48.994Z,24
2022-08-26T15:38:21.785Z,23
2022-08-26T15:40:54.622Z,28
2022-08-26T15:43:32.051Z,24
2022-08-26T15:46:05.458Z,23
2022-08-26T15:48:38.631Z,20
2022-08-26T15:51:11.638Z,20
2022-08-26T15:53:43.875Z,20
2022-08-26T15:56:16.455Z,17
2022-08-26T15:58:56.418Z,20
2022-08-26T16:01:30.068Z,18
2022-08-26T16:04:03.011Z,20
2022-08-26T16:06:35.977Z,16
2022-08-26T16:09:09.220Z,21
2022-08-26T16:11:41.717Z,16
2022-08-26T16:14:14.933Z,16
2022-08-26T16:16:47.670Z,20
2022-08-26T16:19:20.451Z,17
2022-08-26T16:21:53.250Z,16
2022-08-26T16:24:30.823Z,16
2022-08-26T16:27:02.136Z,23
2022-08-26T16:29:35.265Z,16
2022-08-26T16:32:07.945Z,20
2022-08-26T16:34:57.298Z,20
2022-08-26T16:37:28.247Z,22
2022-08-26T16:40:01.686Z,20
2022-08-26T16:42:34.325Z,19
2022-08-26T16:45:07.465Z,18
2022-08-26T16:47:40.135Z,20
2022-08-26T16:50:13.093Z,21
2022-08-26T16:52:46.342Z,19
2022-08-26T16:55:27.403Z,24
2022-08-26T16:57:58.731Z,19
2022-08-26T17:00:31.716Z,16
2022-08-26T17:03:04.467Z,23
2022-08-26T17:05:37.205Z,20
2022-08-26T17:08:10.216Z,16
2022-08-26T17:10:58.890Z,23
2022-08-26T17:13:36.369Z,19
2022-08-26T17:16:07.716Z,22
2022-08-26T17:18:40.375Z,24
2022-08-26T17:21:13.703Z,20
2022-08-26T17:23:46.181Z,24
2022-08-26T17:26:19.201Z,24
2022-08-26T17:28:52.417Z,21
2022-08-26T17:31:25.602Z,20
2022-08-26T17:33:58.605Z,21
2022-08-26T17:36:31.450Z,20
2022-08-26T17:39:04.019Z,16
2022-08-26T17:41:36.639Z,21
2022-08-26T17:44:09.507Z,16
2022-08-26T17:46:40.243Z,22
2022-08-26T17:49:13.013Z,23
2022-08-26T17:51:45.496Z,32
2022-08-26T17:54:17.719Z,36
2022-08-26T17:56:50.379Z,32
2022-08-26T17:59:30.947Z,37
2022-08-26T18:02:02.983Z,32
2022-08-26T18:04:35.445Z,32
2022-08-26T18:07:08.336Z,37
2022-08-26T18:09:41.204Z,36
2022-08-26T18:12:14.093Z,48
2022-08-26T18:14:46.615Z,32
2022-08-26T18:17:19.769Z,32
2022-08-26T18:19:52.244Z,28
2022-08-26T18:22:25.398Z,32
2022-08-26T18:24:59.583Z,32
2022-08-26T18:27:31.731Z,31
2022-08-26T18:30:04.541Z,31
2022-08-26T18:32:36.973Z,28
2022-08-26T18:35:09.404Z,32
2022-08-26T18:37:42.037Z,28
2022-08-26T18:40:15.018Z,28
2022-08-26T18:42:54.383Z,31
2022-08-26T18:45:25.791Z,32
2022-08-26T18:47:58.313Z,33
2022-08-26T18:50:30.906Z,41
2022-08-26T18:53:04.012Z,40
2022-08-26T18:55:36.717Z,29
2022-08-26T18:58:11.656Z,35
2022-08-26T19:00:43.955Z,40
2022-08-26T19:03:19.430Z,27
2022-08-26T19:05:51.241Z,32
2022-08-26T19:08:24.138Z,32
2022-08-26T19:10:56.966Z,28
2022-08-26T19:13:29.944Z,30
2022-08-26T19:16:02.967Z,35
2022-08-26T19:18:37.440Z,32
2022-08-26T19:21:10.003Z,32
2022-08-26T19:23:42.490Z,30
2022-08-26T19:26:15.255Z,35
2022-08-26T19:28:47.612Z,40
2022-08-26T19:31:20.191Z,39
2022-08-26T19:33:52.880Z,32
2022-08-26T19:36:25.486Z,28
2022-08-26T19:38:57.950Z,28
2022-08-26T19:41:38.215Z,28
2022-08-26T19:44:09.313Z,32
2022-08-26T19:46:41.771Z,32
2022-08-26T19:49:14.488Z,32
2022-08-26T19:51:48.219Z,29
2022-08-26T19:54:20.702Z,33
2022-08-26T19:56:53.544Z,45
2022-08-26T19:59:26.696Z,43
2022-08-26T20:02:02.329Z,41
2022-08-26T20:04:41.744Z,40
2022-08-26T20:07:19.091Z,37
2022-08-26T20:09:50.688Z,40
2022-08-26T20:12:23.324Z,40
2022-08-26T20:14:56.522Z,40
2022-08-26T20:17:29.008Z,46
2022-08-26T20:20:01.772Z,40
2022-08-26T20:22:34.535Z,41
2022-08-26T20:25:07.108Z,30
2022-08-26T20:27:39.784Z,36
2022-08-26T20:30:12.524Z,33
2022-08-26T20:32:45.825Z,32
2022-08-26T20:35:18.418Z,33
2022-08-26T20:37:51.332Z,36
2022-08-26T20:40:24.214Z,36
2022-08-26T20:42:57.584Z,32
2022-08-26T20:45:31.042Z,28
2022-08-26T20:48:04.109Z,29
2022-08-26T20:50:36.731Z,28
2022-08-26T20:53:09.582Z,28
2022-08-26T20:55:41.981Z,28
2022-08-26T20:58:15.064Z,28
2022-08-26T21:00:47.698Z,24
2022-08-26T21:03:20.811Z,32
2022-08-26T21:05:55.395Z,42
2022-08-26T21:08:28.425Z,36
2022-08-26T21:11:02.147Z,28
2022-08-26T21:14:07.211Z,28
2022-08-26T21:16:48.251Z,33
2022-08-26T21:19:20.643Z,36
2022-08-26T21:21:53.241Z,34
2022-08-26T21:24:26.011Z,29
2022-08-26T21:26:58.704Z,31
2022-08-26T21:29:31.412Z,33
2022-08-26T21:32:04.794Z,28
2022-08-26T21:34:37.258Z,33
2022-08-26T21:37:17.161Z,32
2022-08-26T21:39:48.556Z,32
2022-08-26T21:42:21.192Z,29
2022-08-26T21:44:54.098Z,29
2022-08-26T21:47:26.633Z,29
2022-08-26T21:49:59.210Z,24
2022-08-26T21:52:32.423Z,32
2022-08-26T21:55:09.425Z,30
2022-08-26T21:57:42.863Z,28
2022-08-26T22:00:16.041Z,24
2022-08-26T22:02:49.611Z,31
2022-08-26T22:05:22.731Z,28
2022-08-26T22:07:55.478Z,28
2022-08-26T22:10:28.134Z,28
2022-08-26T22:13:00.701Z,32
2022-08-26T22:15:33.701Z,28
2022-08-26T22:18:06.985Z,24
2022-08-26T22:20:40.201Z,28
2022-08-26T22:23:13.479Z,29
2022-08-26T22:25:46.638Z,28
2022-08-26T22:28:19.907Z,27
2022-08-26T22:30:52.674Z,35
2022-08-26T22:33:25.153Z,40
2022-08-26T22:35:58.467Z,37
2022-08-26T22:38:31.905Z,36
2022-08-26T22:41:08.696Z,32
2022-08-26T22:43:40.459Z,28
2022-08-26T22:46:13.499Z,29
2022-08-26T22:48:54.194Z,28
2022-08-26T22:51:25.750Z,28
2022-08-26T22:53:58.398Z,24
2022-08-26T22:56:31.742Z,27
2022-08-26T22:59:04.953Z,25
2022-08-26T23:01:37.965Z,28
2022-08-26T23:04:10.623Z,28
2022-08-26T23:06:48.199Z,21
2022-08-26T23:09:21.959Z,22
2022-08-26T23:11:54.723Z,26
2022-08-26T23:14:27.238Z,28
2022-08-26T23:17:00.739Z,30
2022-08-26T23:19:33.686Z,28
2022-08-26T23:22:06.977Z,24
2022-08-26T23:24:39.552Z,23
2022-08-26T23:27:12.876Z,27
2022-08-26T23:29:46.057Z,27
2022-08-26T23:32:18.806Z,25
2022-08-26T23:34:51.661Z,23
2022-08-26T23:37:26.798Z,27
2022-08-26T23:40:01.738Z,28
2022-08-26T23:42:35.975Z,28
2022-08-26T23:45:08.773Z,32
2022-08-26T23:47:41.201Z,42
2022-08-26T23:50:14.135Z,39
2022-08-26T23:52:47.267Z,32
2022-08-26T23:55:19.985Z,28
2022-08-26T23:57:52.793Z,28
